Time;durP1;ratioP1;P1;durP2;ratioP2;P2;SDS_P1;SDS_P2;PMS_P1;PMS_P2;Temp;Humidity;BMP_temperature;BMP_pressure;BME280_temperature;BME280_humidity;BME280_pressure;Samples;Min_cycle;Max_cycle;Signal;HPM_P1;HPM_P2
2023/09/01 00:00:06;;;;;;;0.13;0.13;;;;;;;12.31;76.57;97347.19;5061671;28;20043;-67
2023/09/01 00:02:33;;;;;;;0.22;0.22;;;;;;;12.39;76.52;97352.28;5060882;28;20049;-68
2023/09/01 00:05:10;;;;;;;0.25;0.25;;;;;;;12.37;76.60;97348.19;5063203;28;20044;-68
2023/09/01 00:07:37;;;;;;;0.35;0.35;;;;;;;12.42;76.44;97349.22;5064359;28;20036;-67
2023/09/01 00:10:06;;;;;;;0.22;0.22;;;;;;;12.39;76.53;97352.28;5062888;28;20127;-67
2023/09/01 00:12:35;;;;;;;0.13;0.13;;;;;;;12.37;76.32;97350.84;5062472;28;20408;-67
2023/09/01 00:15:04;;;;;;;0.22;0.22;;;;;;;12.32;76.55;97343.47;5064124;28;20067;-68
2023/09/01 00:17:31;;;;;;;0.40;0.40;;;;;;;12.27;76.60;97348.63;5062734;28;20944;-67
2023/09/01 00:19:59;;;;;;;0.40;0.40;;;;;;;12.20;77.16;97342.50;5061372;28;20051;-68
2023/09/01 00:22:27;;;;;;;0.10;0.10;;;;;;;12.24;76.83;97340.22;5061248;28;20040;-68
2023/09/01 00:24:55;;;;;;;0.15;0.15;;;;;;;12.35;76.47;97335.03;5059163;28;20052;-68
2023/09/01 00:27:22;;;;;;;0.22;0.22;;;;;;;12.29;76.47;97327.00;5061541;28;20045;-67
2023/09/01 00:29:51;;;;;;;0.20;0.20;;;;;;;12.15;76.97;97330.78;5058262;28;20132;-67
2023/09/01 00:32:19;;;;;;;0.13;0.13;;;;;;;12.13;77.25;97326.47;5059781;28;20044;-67
2023/09/01 00:34:47;;;;;;;0.22;0.22;;;;;;;12.15;77.21;97334.25;5059780;28;20063;-67
2023/09/01 00:37:14;;;;;;;0.20;0.20;;;;;;;12.23;77.04;97342.06;5061325;28;20123;-67
2023/09/01 00:39:42;;;;;;;0.25;0.25;;;;;;;12.12;77.44;97340.06;5059781;28;20037;-67
2023/09/01 00:42:10;;;;;;;0.30;0.30;;;;;;;12.16;77.43;97335.91;5059193;28;20051;-67
2023/09/01 00:44:37;;;;;;;0.13;0.13;;;;;;;12.08;77.69;97342.31;5061053;28;20488;-67
2023/09/01 00:47:06;;;;;;;0.20;0.20;;;;;;;12.20;77.38;97344.34;5060644;28;20041;-67
2023/09/01 00:49:36;;;;;;;0.22;0.22;;;;;;;12.17;77.58;97342.09;5060326;28;20069;-67
2023/09/01 00:52:05;;;;;;;0.22;0.22;;;;;;;12.23;77.42;97341.25;5060431;28;20041;-67
2023/09/01 00:54:33;;;;;;;0.30;0.30;;;;;;;12.22;77.18;97344.97;5060201;28;20051;-67
2023/09/01 00:57:01;;;;;;;0.30;0.30;;;;;;;12.23;77.45;97349.28;5057941;28;20072;-67
2023/09/01 00:59:28;;;;;;;0.30;0.30;;;;;;;12.26;77.27;97340.81;5060154;28;20044;-68
2023/09/01 01:01:56;;;;;;;0.30;0.30;;;;;;;12.29;77.71;97343.06;5060990;28;20059;-67
2023/09/01 01:04:26;;;;;;;0.25;0.25;;;;;;;12.31;77.65;97341.00;5059869;28;20439;-68
2023/09/01 01:07:13;;;;;;;0.30;0.30;;;;;;;12.37;77.71;97342.81;5059768;28;20044;-67
2023/09/01 01:09:47;;;;;;;0.22;0.22;;;;;;;12.34;77.41;97340.59;5060547;28;20052;-68
2023/09/01 01:12:22;;;;;;;0.40;0.40;;;;;;;12.23;77.81;97334.06;5060343;28;20508;-67
2023/09/01 01:14:53;;;;;;;0.35;0.35;;;;;;;12.20;78.07;97321.09;5060294;28;20047;-67
2023/09/01 01:17:22;;;;;;;0.13;0.13;;;;;;;12.35;77.82;97327.00;5058223;28;20539;-66
2023/09/01 01:19:53;;;;;;;0.35;0.35;;;;;;;12.39;77.58;97324.72;5059314;28;20083;-66
2023/09/01 01:22:29;;;;;;;0.13;0.13;;;;;;;12.26;77.63;97322.09;5060635;28;20044;-67
2023/09/01 01:24:58;;;;;;;0.30;0.30;;;;;;;12.26;77.99;97330.09;5060791;28;20040;-67
2023/09/01 01:27:26;;;;;;;0.22;0.22;;;;;;;12.38;77.83;97328.41;5059082;28;20049;-66
2023/09/01 01:29:54;;;;;;;0.30;0.30;;;;;;;12.38;77.93;97326.56;5060775;28;20508;-67
2023/09/01 01:32:21;;;;;;;0.22;0.22;;;;;;;12.50;77.34;97334.75;5059297;28;20065;-66
2023/09/01 01:34:52;;;;;;;0.10;0.10;;;;;;;12.52;77.44;97334.53;5061355;28;20069;-66
2023/09/01 01:37:28;;;;;;;0.30;0.30;;;;;;;12.37;77.07;97334.81;5059056;28;20128;-66
2023/09/01 01:39:56;;;;;;;0.30;0.30;;;;;;;12.35;76.98;97334.22;5059316;28;20048;-67
2023/09/01 01:42:25;;;;;;;0.13;0.13;;;;;;;12.22;77.73;97329.72;5059568;28;20050;-67
2023/09/01 01:44:54;;;;;;;0.32;0.32;;;;;;;12.21;77.33;97328.09;5058702;28;20152;-67
2023/09/01 01:47:23;;;;;;;0.13;0.13;;;;;;;12.24;77.32;97326.84;5062240;28;20542;-67
2023/09/01 01:49:50;;;;;;;0.20;0.20;;;;;;;12.23;77.11;97322.53;5063750;28;20049;-66
2023/09/01 01:52:18;;;;;;;0.22;0.22;;;;;;;12.34;76.68;97321.88;5064007;28;20136;-66
2023/09/01 01:54:46;;;;;;;0.32;0.32;;;;;;;12.29;76.97;97316.31;5062871;28;20056;-67
2023/09/01 01:57:14;;;;;;;0.15;0.15;;;;;;;12.14;77.28;97321.94;5062373;28;20048;-66
2023/09/01 01:59:44;;;;;;;0.22;0.22;;;;;;;12.21;76.97;97328.09;5061619;28;20044;-67
2023/09/01 02:02:12;;;;;;;0.22;0.22;;;;;;;12.17;77.15;97329.53;5061607;28;20044;-66
2023/09/01 02:04:40;;;;;;;0.30;0.30;;;;;;;11.99;77.94;97329.38;5063806;28;20511;-67
2023/09/01 02:07:07;;;;;;;0.10;0.10;;;;;;;12.03;77.77;97326.09;5062634;28;20049;-67
2023/09/01 02:09:35;;;;;;;0.25;0.25;;;;;;;12.09;77.99;97327.09;5062476;28;20488;-66
2023/09/01 02:12:04;;;;;;;0.30;0.30;;;;;;;11.89;79.07;97323.66;5062861;28;20048;-66
2023/09/01 02:14:34;;;;;;;0.13;0.13;;;;;;;11.92;79.22;97325.91;5061086;28;20036;-68
2023/09/01 02:17:05;;;;;;;0.32;0.32;;;;;;;12.07;78.57;97321.13;5061554;28;20530;-68
2023/09/01 02:19:36;;;;;;;0.20;0.20;;;;;;;12.09;78.72;97317.22;5062008;28;20590;-66
2023/09/01 02:22:05;;;;;;;0.32;0.32;;;;;;;12.10;78.95;97326.06;5063246;28;20049;-66
2023/09/01 02:24:33;;;;;;;0.22;0.22;;;;;;;12.23;78.38;97325.19;5063791;28;20037;-66
2023/09/01 02:27:01;;;;;;;0.32;0.32;;;;;;;12.15;78.76;97323.56;5064120;28;20048;-66
2023/09/01 02:29:29;;;;;;;0.25;0.25;;;;;;;12.13;79.19;97323.78;5062988;28;20044;-66
2023/09/01 02:31:56;;;;;;;0.22;0.22;;;;;;;12.17;79.03;97329.53;5062738;28;20088;-66
2023/09/01 02:34:26;;;;;;;0.22;0.22;;;;;;;12.24;79.16;97325.00;5061676;28;20051;-66
2023/09/01 02:36:53;;;;;;;0.35;0.35;;;;;;;12.29;79.53;97333.19;5063100;28;20127;-66
2023/09/01 02:39:21;;;;;;;0.17;0.17;;;;;;;12.35;79.31;97335.03;5060807;28;20747;-67
2023/09/01 02:41:48;;;;;;;0.13;0.13;;;;;;;12.44;79.63;97330.25;5062569;28;20135;-66
2023/09/01 02:44:16;;;;;;;0.13;0.13;;;;;;;12.55;79.40;97324.25;5063047;28;20071;-66
2023/09/01 02:46:44;;;;;;;0.30;0.30;;;;;;;12.55;79.35;97334.94;5061786;28;20118;-66
2023/09/01 02:49:11;;;;;;;0.20;0.20;;;;;;;12.62;79.14;97330.38;5060001;28;20135;-68
2023/09/01 02:51:40;;;;;;;0.10;0.10;;;;;;;12.62;79.23;97325.00;5063052;28;20432;-68
2023/09/01 02:54:08;;;;;;;0.10;0.10;;;;;;;12.75;78.89;97330.31;5063192;28;20579;-68
2023/09/01 02:56:36;;;;;;;0.13;0.13;;;;;;;12.59;79.58;97328.13;5061769;28;20044;-68
2023/09/01 02:59:04;;;;;;;0.13;0.13;;;;;;;12.61;79.75;97326.03;5062052;28;20079;-68
2023/09/01 03:01:31;;;;;;;0.13;0.13;;;;;;;12.59;80.16;97336.16;5060992;28;20546;-66
2023/09/01 03:03:59;;;;;;;0.25;0.25;;;;;;;12.70;79.70;97340.81;5062074;28;20503;-66
2023/09/01 03:06:27;;;;;;;0.32;0.32;;;;;;;12.70;79.89;97337.31;5064159;28;20040;-67
2023/09/01 03:08:56;;;;;;;0.25;0.25;;;;;;;12.79;79.73;97331.50;5064112;28;20059;-67
2023/09/01 03:11:24;;;;;;;0.22;0.22;;;;;;;12.85;79.73;97330.66;5060376;28;20171;-66
2023/09/01 03:13:51;;;;;;;0.20;0.20;;;;;;;12.81;79.79;97331.28;5061137;28;20515;-67
2023/09/01 03:16:20;;;;;;;0.15;0.15;;;;;;;12.80;80.22;97322.44;5059495;28;20056;-67
2023/09/01 03:18:47;;;;;;;0.22;0.22;;;;;;;12.91;79.61;97328.13;5061972;28;20045;-67
2023/09/01 03:21:15;;;;;;;0.10;0.10;;;;;;;12.92;79.61;97319.06;5060746;28;20040;-67
2023/09/01 03:23:43;;;;;;;0.20;0.20;;;;;;;13.01;79.46;97315.09;5062863;28;20483;-67
2023/09/01 03:26:13;;;;;;;0.25;0.25;;;;;;;13.06;78.76;97310.75;5060692;28;20051;-67
2023/09/01 03:28:41;;;;;;;0.30;0.30;;;;;;;12.91;79.26;97320.09;5060101;28;20040;-67
2023/09/01 03:31:10;;;;;;;0.32;0.32;;;;;;;12.83;79.60;97313.97;5060449;28;20048;-67
2023/09/01 03:33:41;;;;;;;0.13;0.13;;;;;;;12.78;79.58;97311.09;5061650;28;20044;-67
2023/09/01 03:36:09;;;;;;;0.13;0.13;;;;;;;12.78;79.95;97316.47;5059292;28;20044;-67
2023/09/01 03:38:38;;;;;;;0.20;0.20;;;;;;;12.76;80.03;97315.88;5059933;28;20075;-67
2023/09/01 03:41:06;;;;;;;0.10;0.10;;;;;;;12.77;80.17;97312.13;5061287;28;20049;-67
2023/09/01 03:43:36;;;;;;;0.20;0.20;;;;;;;12.77;80.34;97314.81;5062688;28;20050;-67
2023/09/01 03:46:04;;;;;;;0.17;0.17;;;;;;;12.79;80.46;97310.06;5059917;28;20120;-67
2023/09/01 03:48:34;;;;;;;0.10;0.10;;;;;;;12.81;80.43;97313.38;5061469;28;20488;-67
2023/09/01 03:51:06;;;;;;;0.17;0.17;;;;;;;12.85;80.65;97316.44;5060443;28;20098;-67
2023/09/01 03:53:33;;;;;;;0.22;0.22;;;;;;;12.86;80.82;97320.78;5060778;28;20503;-67
2023/09/01 03:56:01;;;;;;;0.32;0.32;;;;;;;12.88;80.70;97319.50;5060828;28;20127;-67
2023/09/01 03:58:29;;;;;;;0.13;0.13;;;;;;;12.92;80.57;97319.88;5060388;28;20128;-67
2023/09/01 04:00:58;;;;;;;0.20;0.20;;;;;;;12.89;80.88;97314.97;5059591;28;20045;-67
2023/09/01 04:03:26;;;;;;;0.25;0.25;;;;;;;12.88;81.08;97306.09;5061756;28;20064;-67
2023/09/01 04:05:56;;;;;;;0.17;0.17;;;;;;;12.90;81.31;97302.38;5065241;28;20045;-67
2023/09/01 04:08:25;;;;;;;0.13;0.13;;;;;;;12.89;81.88;97298.88;5058726;28;20048;-67
2023/09/01 04:10:53;;;;;;;0.22;0.22;;;;;;;12.90;81.99;97297.84;5061817;28;20074;-67
2023/09/01 04:13:21;;;;;;;0.20;0.20;;;;;;;12.90;82.28;97308.56;5059223;28;20032;-67
2023/09/01 04:15:51;;;;;;;0.30;0.30;;;;;;;12.95;82.32;97307.94;5059533;28;20049;-68
2023/09/01 04:18:20;;;;;;;0.25;0.25;;;;;;;12.99;82.02;97309.94;5059587;28;20041;-68
2023/09/01 04:20:48;;;;;;;0.35;0.35;;;;;;;13.02;81.86;97320.22;5059940;28;20403;-68
2023/09/01 04:23:16;;;;;;;0.22;0.22;;;;;;;13.04;81.63;97317.34;5060023;28;20133;-68
2023/09/01 04:25:44;;;;;;;0.13;0.13;;;;;;;13.03;81.79;97310.34;5061633;28;20039;-68
2023/09/01 04:28:13;;;;;;;0.13;0.13;;;;;;;13.06;82.18;97317.94;5059985;28;20037;-68
2023/09/01 04:30:42;;;;;;;0.20;0.20;;;;;;;13.07;82.20;97315.06;5059966;28;20132;-69
2023/09/01 04:33:10;;;;;;;0.22;0.22;;;;;;;13.10;82.03;97311.94;5059277;28;20059;-68
2023/09/01 04:35:40;;;;;;;0.17;0.17;;;;;;;13.08;82.47;97307.84;5060984;28;20051;-69
2023/09/01 04:38:08;;;;;;;0.28;0.28;;;;;;;13.07;82.51;97309.69;5059322;28;20128;-68
2023/09/01 04:40:36;;;;;;;0.13;0.13;;;;;;;13.05;82.77;97305.59;5059152;28;20119;-68
2023/09/01 04:43:04;;;;;;;0.22;0.22;;;;;;;13.06;82.69;97312.59;5061657;28;20039;-68
2023/09/01 04:45:32;;;;;;;0.15;0.15;;;;;;;13.07;82.72;97311.56;5060938;28;20404;-68
2023/09/01 04:48:00;;;;;;;0.22;0.22;;;;;;;13.13;82.63;97316.03;5060752;28;20048;-68
2023/09/01 04:50:29;;;;;;;0.22;0.22;;;;;;;13.17;82.22;97309.25;5061406;28;20048;-67
2023/09/01 04:52:58;;;;;;;0.22;0.22;;;;;;;13.19;82.08;97315.19;5061321;28;20048;-68
2023/09/01 04:55:26;;;;;;;0.13;0.13;;;;;;;13.21;81.84;97315.78;5061380;28;20098;-68
2023/09/01 04:57:53;;;;;;;0.32;0.32;;;;;;;13.27;81.55;97316.81;5060133;28;20049;-68
2023/09/01 05:00:21;;;;;;;0.10;0.10;;;;;;;13.26;81.34;97323.19;5057977;28;20041;-68
2023/09/01 05:02:49;;;;;;;0.10;0.10;;;;;;;13.28;81.14;97323.81;5059925;28;20775;-68
2023/09/01 05:05:17;;;;;;;0.13;0.13;;;;;;;13.28;81.14;97329.16;5059360;28;20041;-68
2023/09/01 05:07:46;;;;;;;0.20;0.20;;;;;;;13.26;81.08;97332.06;5060240;28;20049;-68
2023/09/01 05:10:15;;;;;;;0.10;0.10;;;;;;;13.21;80.91;97337.22;5058208;28;20053;-68
2023/09/01 05:12:43;;;;;;;0.22;0.22;;;;;;;13.22;81.13;97334.34;5060706;28;20041;-68
2023/09/01 05:15:12;;;;;;;0.13;0.13;;;;;;;13.15;81.60;97335.44;5058790;28;20051;-68
2023/09/01 05:17:41;;;;;;;0.38;0.38;;;;;;;13.11;81.59;97329.66;5057898;28;20075;-68
2023/09/01 05:20:10;;;;;;;0.13;0.13;;;;;;;13.11;81.71;97344.91;5062154;28;20045;-68
2023/09/01 05:22:38;;;;;;;0.25;0.25;;;;;;;13.06;81.88;97344.75;5062549;28;20144;-67
2023/09/01 05:25:07;;;;;;;0.20;0.20;;;;;;;13.06;81.97;97342.88;5064749;28;20040;-68
2023/09/01 05:27:36;;;;;;;0.20;0.20;;;;;;;13.06;82.25;97345.56;5063627;28;20040;-68
2023/09/01 05:30:05;;;;;;;0.22;0.22;;;;;;;13.11;82.19;97344.91;5064708;28;20510;-68
2023/09/01 05:32:34;;;;;;;0.10;0.10;;;;;;;13.14;82.17;97345.34;5062632;28;20480;-68
2023/09/01 05:35:04;;;;;;;0.28;0.28;;;;;;;13.25;82.31;97353.72;5063540;28;20130;-68
2023/09/01 05:37:32;;;;;;;0.22;0.22;;;;;;;13.27;82.02;97349.78;5063604;28;20045;-68
2023/09/01 05:40:00;;;;;;;0.13;0.13;;;;;;;13.24;82.13;97347.53;5062936;28;20127;-69
2023/09/01 05:42:30;;;;;;;0.22;0.22;;;;;;;13.20;82.20;97343.63;5065624;28;20044;-68
2023/09/01 05:44:59;;;;;;;0.22;0.22;;;;;;;13.19;82.45;97337.44;5064455;28;20056;-68
2023/09/01 05:47:28;;;;;;;0.20;0.20;;;;;;;13.15;82.34;97349.66;5064095;28;20044;-68
2023/09/01 05:49:56;;;;;;;0.22;0.22;;;;;;;13.16;82.33;97342.44;5061877;28;20512;-68
2023/09/01 05:52:25;;;;;;;0.32;0.32;;;;;;;13.14;82.38;97345.34;5062703;28;20062;-68
2023/09/01 05:54:53;;;;;;;0.30;0.30;;;;;;;13.18;82.71;97343.06;5063712;28;20044;-68
2023/09/01 05:57:21;;;;;;;0.22;0.22;;;;;;;13.24;82.36;97342.16;5064275;28;20593;-68
2023/09/01 05:59:49;;;;;;;0.20;0.20;;;;;;;13.38;82.14;97340.22;5064376;28;20063;-68
2023/09/01 06:02:18;;;;;;;0.43;0.43;;;;;;;13.36;81.86;97350.34;5064549;28;20052;-68
2023/09/01 06:04:45;;;;;;;0.15;0.15;;;;;;;13.39;81.77;97342.66;5065475;28;20047;-68
2023/09/01 06:07:13;;;;;;;0.28;0.28;;;;;;;13.42;81.78;97352.13;5063947;28;20049;-68
2023/09/01 06:09:41;;;;;;;0.22;0.22;;;;;;;13.46;81.69;97356.84;5063028;28;20040;-68
2023/09/01 06:12:09;;;;;;;0.22;0.22;;;;;;;13.50;81.61;97354.53;5062614;28;20424;-68
2023/09/01 06:14:37;;;;;;;0.10;0.10;;;;;;;13.57;81.37;97353.47;5061875;28;20097;-68
2023/09/01 06:17:04;;;;;;;0.22;0.22;;;;;;;13.65;81.06;97365.75;5062632;28;20036;-68
2023/09/01 06:19:33;;;;;;;0.30;0.30;;;;;;;13.74;81.13;97367.13;5062987;28;20127;-68
2023/09/01 06:22:01;;;;;;;0.22;0.22;;;;;;;13.80;80.63;97354.69;5064840;28;20427;-68
2023/09/01 06:24:30;;;;;;;0.30;0.30;;;;;;;13.82;80.57;97360.66;5063654;28;20036;-68
2023/09/01 06:26:57;;;;;;;0.32;0.32;;;;;;;13.86;80.26;97357.31;5063897;28;20044;-66
2023/09/01 06:29:25;;;;;;;0.22;0.22;;;;;;;13.89;80.39;97353.38;5063937;28;20045;-67
2023/09/01 06:31:53;;;;;;;0.20;0.20;;;;;;;13.88;80.42;97357.91;5062862;28;20052;-66
2023/09/01 06:34:20;;;;;;;0.32;0.32;;;;;;;13.91;80.56;97359.34;5061622;28;20114;-66
2023/09/01 06:36:49;;;;;;;0.10;0.10;;;;;;;14.00;80.12;97366.06;5062406;28;20048;-66
2023/09/01 06:39:18;;;;;;;0.38;0.38;;;;;;;14.01;80.28;97366.88;5063407;28;20044;-66
2023/09/01 06:41:46;;;;;;;0.28;0.28;;;;;;;14.08;80.28;97364.94;5064494;28;20047;-66
2023/09/01 06:44:14;;;;;;;0.13;0.13;;;;;;;14.15;79.89;97366.50;5063875;28;20051;-66
2023/09/01 06:46:41;;;;;;;0.30;0.30;;;;;;;14.20;79.77;97369.34;5062493;28;20131;-66
2023/09/01 06:49:09;;;;;;;0.25;0.25;;;;;;;14.24;79.61;97365.16;5063137;28;20044;-66
2023/09/01 06:51:37;;;;;;;0.20;0.20;;;;;;;14.26;79.44;97365.78;5063964;28;20047;-66
2023/09/01 06:54:08;;;;;;;0.25;0.25;;;;;;;14.31;79.47;97359.75;5062967;28;20488;-66
2023/09/01 06:56:35;;;;;;;0.32;0.32;;;;;;;14.38;79.46;97371.22;5062574;28;20040;-66
2023/09/01 06:59:03;;;;;;;0.13;0.13;;;;;;;14.44;78.92;97366.84;5063270;28;20046;-67
2023/09/01 07:01:31;;;;;;;0.03;0.03;;;;;;;14.45;79.02;97366.63;5062533;28;20068;-67
2023/09/01 07:03:58;;;;;;;0.20;0.20;;;;;;;14.50;79.03;97374.00;5063190;28;20045;-67
2023/09/01 07:06:26;;;;;;;0.20;0.20;;;;;;;14.51;78.77;97375.66;5062402;28;20519;-66
2023/09/01 07:08:54;;;;;;;0.20;0.20;;;;;;;14.51;78.92;97372.97;5062393;28;20041;-66
2023/09/01 07:11:24;;;;;;;0.20;0.20;;;;;;;14.54;78.81;97373.31;5063624;28;20101;-66
2023/09/01 07:13:52;;;;;;;0.30;0.30;;;;;;;14.62;79.04;97375.72;5062445;28;20048;-66
2023/09/01 07:16:20;;;;;;;0.20;0.20;;;;;;;14.72;78.55;97374.38;5062938;28;20049;-66
2023/09/01 07:18:48;;;;;;;0.10;0.10;;;;;;;14.75;77.92;97363.97;5062199;28;20210;-66
2023/09/01 07:21:16;;;;;;;0.13;0.13;;;;;;;14.77;78.23;97369.13;5061411;28;20385;-66
2023/09/01 07:23:43;;;;;;;0.13;0.13;;;;;;;14.89;77.87;97373.50;5060755;28;20045;-66
2023/09/01 07:26:11;;;;;;;0.13;0.13;;;;;;;15.04;77.89;97370.41;5061222;28;20185;-67
2023/09/01 07:28:40;;;;;;;0.13;0.13;;;;;;;15.26;77.36;97368.81;5061907;28;20496;-67
2023/09/01 07:31:11;;;;;;;0.20;0.20;;;;;;;15.45;76.49;97366.09;5060551;28;20045;-66
2023/09/01 07:33:41;;;;;;;0.20;0.20;;;;;;;15.51;75.40;97360.59;5061917;28;20047;-66
2023/09/01 07:36:10;;;;;;;0.13;0.13;;;;;;;15.51;75.87;97365.97;5061049;28;20138;-66
2023/09/01 07:38:37;;;;;;;0.13;0.13;;;;;;;15.62;75.92;97370.59;5061745;28;20040;-67
2023/09/01 07:41:06;;;;;;;0.13;0.13;;;;;;;15.64;75.28;97360.41;5061355;28;20045;-67
2023/09/01 07:43:34;;;;;;;0.22;0.22;;;;;;;15.55;75.67;97369.88;5060857;28;20048;-67
2023/09/01 07:46:03;;;;;;;0.30;0.30;;;;;;;15.57;76.08;97367.78;5060640;28;20646;-67
2023/09/01 07:48:31;;;;;;;0.13;0.13;;;;;;;15.59;75.95;97362.97;5062064;28;20491;-67
2023/09/01 07:50:59;;;;;;;0.10;0.10;;;;;;;15.57;76.08;97364.28;5061160;28;20064;-67
2023/09/01 07:53:27;;;;;;;0.22;0.22;;;;;;;15.63;75.68;97364.16;5061120;28;20119;-67
2023/09/01 07:55:54;;;;;;;0.22;0.22;;;;;;;15.64;75.65;97373.88;5061032;28;20040;-67
2023/09/01 07:58:22;;;;;;;0.20;0.20;;;;;;;15.64;75.87;97371.16;5059862;28;20144;-67
2023/09/01 08:00:50;;;;;;;0.40;0.40;;;;;;;15.69;75.09;97376.66;5060195;28;20132;-68
2023/09/01 08:03:19;;;;;;;0.22;0.22;;;;;;;15.61;75.32;97378.88;5062160;28;20041;-67
2023/09/01 08:05:47;;;;;;;0.20;0.20;;;;;;;15.55;75.97;97383.31;5061553;28;20103;-67
2023/09/01 08:08:14;;;;;;;0.13;0.13;;;;;;;15.55;75.71;97380.63;5059918;28;20139;-67
2023/09/01 08:10:43;;;;;;;0.22;0.22;;;;;;;15.60;75.96;97385.31;5061858;28;20409;-67
2023/09/01 08:13:10;;;;;;;0.13;0.13;;;;;;;15.65;75.80;97388.13;5062129;28;20036;-67
2023/09/01 08:15:38;;;;;;;0.20;0.20;;;;;;;15.76;75.70;97395.41;5061312;28;20123;-67
2023/09/01 08:18:06;;;;;;;0.20;0.20;;;;;;;15.81;75.04;97392.81;5060555;28;20037;-67
2023/09/01 08:20:35;;;;;;;0.15;0.15;;;;;;;15.81;75.49;97392.81;5060637;28;20114;-67
2023/09/01 08:23:03;;;;;;;0.13;0.13;;;;;;;15.84;75.39;97391.56;5060971;28;20063;-67
2023/09/01 08:25:32;;;;;;;0.30;0.30;;;;;;;15.83;75.32;97393.41;5059873;28;20047;-67
2023/09/01 08:28:00;;;;;;;0.13;0.13;;;;;;;15.91;75.60;97389.56;5060453;28;20041;-67
2023/09/01 08:30:28;;;;;;;0.15;0.15;;;;;;;15.90;75.53;97396.00;5061036;28;20040;-67
2023/09/01 08:32:56;;;;;;;0.10;0.10;;;;;;;15.86;75.46;97392.97;5061405;28;20449;-67
2023/09/01 08:35:23;;;;;;;0.10;0.10;;;;;;;15.92;75.50;97385.81;5060447;28;20044;-67
2023/09/01 08:37:52;;;;;;;0.13;0.13;;;;;;;15.85;75.42;97388.63;5060606;28;20045;-68
2023/09/01 08:40:20;;;;;;;0.20;0.20;;;;;;;15.89;75.46;97392.47;5059869;28;20047;-68
2023/09/01 08:42:49;;;;;;;0.10;0.10;;;;;;;15.91;75.33;97392.25;5060279;28;20045;-68
2023/09/01 08:45:19;;;;;;;0.10;0.10;;;;;;;15.93;75.29;97392.84;5060408;28;20047;-68
2023/09/01 08:47:48;;;;;;;0.20;0.20;;;;;;;15.96;75.20;97392.38;5061169;28;20094;-68
2023/09/01 08:50:17;;;;;;;0.17;0.17;;;;;;;15.92;75.34;97380.44;5059672;28;20083;-68
2023/09/01 08:52:46;;;;;;;0.10;0.10;;;;;;;15.82;75.38;97388.25;5061107;28;20776;-68
2023/09/01 08:55:16;;;;;;;0.10;0.10;;;;;;;15.76;75.39;97390.03;5059246;28;20406;-68
2023/09/01 08:57:47;;;;;;;0.20;0.20;;;;;;;15.74;75.79;97390.25;5061465;28;20170;-68
2023/09/01 09:00:16;;;;;;;0.10;0.10;;;;;;;15.69;76.19;97392.81;5060513;28;20048;-67
2023/09/01 09:02:45;;;;;;;0.13;0.13;;;;;;;15.70;76.27;97390.94;5060306;28;20078;-68
2023/09/01 09:05:34;;;;;;;0.20;0.20;;;;;;;15.69;76.10;97400.06;5059657;28;20040;-68
2023/09/01 09:08:04;;;;;;;0.17;0.17;;;;;;;15.65;76.10;97398.91;5061558;28;20469;-69
2023/09/01 09:10:34;;;;;;;0.10;0.10;;;;;;;15.63;76.12;97403.69;5060373;28;20123;-67
2023/09/01 09:13:04;;;;;;;0.30;0.30;;;;;;;15.67;76.27;97403.00;5060394;28;20146;-68
2023/09/01 09:15:32;;;;;;;0.15;0.15;;;;;;;15.72;76.41;97405.81;5059321;28;20041;-67
2023/09/01 09:18:00;;;;;;;0.13;0.13;;;;;;;15.72;76.15;97407.69;5060569;28;20087;-68
2023/09/01 09:20:37;;;;;;;0.17;0.17;;;;;;;15.81;76.00;97405.47;5060073;28;20094;-68
2023/09/01 09:23:05;;;;;;;0.20;0.20;;;;;;;15.82;76.15;97407.09;5060320;28;20059;-68
2023/09/01 09:25:35;;;;;;;0.13;0.13;;;;;;;15.83;76.00;97408.75;5060044;28;20052;-68
2023/09/01 09:28:12;;;;;;;0.25;0.25;;;;;;;15.90;75.87;97420.22;5059207;28;20513;-68
2023/09/01 09:30:48;;;;;;;;;;;;;;;15.97;75.56;97413.69;5061404;28;20460;-68
2023/09/01 09:33:16;;;;;;;0.13;0.13;;;;;;;16.05;75.62;97415.22;5061711;28;19927;-68
2023/09/01 09:35:49;;;;;;;0.15;0.15;;;;;;;16.11;75.53;97406.19;5058413;28;20099;-68
2023/09/01 09:38:17;;;;;;;;;;;;;;;16.17;75.28;97402.56;5059791;28;20099;-68
2023/09/01 09:40:56;;;;;;;0.20;0.20;;;;;;;16.20;74.34;97403.94;5060414;28;19920;-68
2023/09/01 09:43:24;;;;;;;0.17;0.17;;;;;;;16.25;74.28;97406.78;5059045;28;20051;-68
2023/09/01 09:45:52;;;;;;;0.10;0.10;;;;;;;16.30;74.75;97404.19;5060042;28;20043;-68
2023/09/01 09:48:20;;;;;;;0.20;0.20;;;;;;;16.26;74.87;97409.22;5060208;28;20128;-68
2023/09/01 09:50:51;;;;;;;0.13;0.13;;;;;;;16.22;74.88;97413.44;5060780;28;20052;-67
2023/09/01 09:53:22;;;;;;;0.15;0.15;;;;;;;16.18;74.80;97414.16;5058255;28;20073;-68
2023/09/01 09:55:50;;;;;;;0.13;0.13;;;;;;;16.18;74.93;97406.91;5060459;28;20041;-68
2023/09/01 09:58:24;;;;;;;0.10;0.10;;;;;;;16.17;75.00;97404.44;5057699;28;20037;-67
2023/09/01 10:00:57;;;;;;;0.13;0.13;;;;;;;16.11;75.08;97406.19;5059431;28;20051;-68
2023/09/01 10:03:29;;;;;;;0.10;0.10;;;;;;;16.10;75.26;97413.44;5061216;28;20037;-68
2023/09/01 10:05:58;;;;;;;0.13;0.13;;;;;;;16.15;75.33;97418.13;5061199;28;20072;-68
2023/09/01 10:08:27;;;;;;;0.43;0.43;;;;;;;16.18;75.18;97412.28;5063490;28;20577;-68
2023/09/01 10:10:58;;;;;;;0.25;0.25;;;;;;;16.24;75.42;97405.13;5062438;28;20110;-67
2023/09/01 10:13:27;;;;;;;0.13;0.13;;;;;;;16.34;74.83;97406.19;5062042;28;20778;-68
2023/09/01 10:15:56;;;;;;;0.10;0.10;;;;;;;16.29;75.13;97408.78;5062885;28;20095;-68
2023/09/01 10:18:24;;;;;;;0.10;0.10;;;;;;;16.28;75.31;97409.00;5061522;28;20064;-68
2023/09/01 10:20:52;;;;;;;0.13;0.13;;;;;;;16.26;75.53;97414.63;5063122;28;20049;-68
2023/09/01 10:23:20;;;;;;;0.22;0.22;;;;;;;16.33;75.32;97412.63;5063364;28;20091;-69
2023/09/01 10:26:12;;;;;;;0.05;0.05;;;;;;;16.35;75.43;97413.19;5063993;28;20047;-68
2023/09/01 10:28:58;;;;;;;0.20;0.20;;;;;;;16.44;75.41;97411.78;5063950;28;20033;-68
2023/09/01 10:31:25;;;;;;;0.05;0.05;;;;;;;16.42;75.43;97408.50;5063500;28;20043;-66
2023/09/01 10:34:07;;;;;;;0.22;0.22;;;;;;;16.45;75.44;97399.13;5062928;28;20163;-68
2023/09/01 10:36:36;;;;;;;0.20;0.20;;;;;;;16.50;75.32;97410.84;5062338;28;20045;-68
2023/09/01 10:39:23;;;;;;;0.10;0.10;;;;;;;16.49;74.80;97403.81;5061499;28;20045;-68
2023/09/01 10:41:55;;;;;;;0.20;0.20;;;;;;;16.50;75.23;97404.66;5061731;28;20132;-68
2023/09/01 10:44:26;;;;;;;0.03;0.03;;;;;;;16.56;75.29;97406.38;5062807;28;20045;-66
2023/09/01 10:46:54;;;;;;;0.13;0.13;;;;;;;16.60;75.16;97393.25;5064389;28;20076;-68
2023/09/01 10:49:55;;;;;;;0.13;0.13;;;;;;;16.70;74.54;97397.03;5061519;28;20041;-68
2023/09/01 10:52:22;;;;;;;0.17;0.17;;;;;;;16.76;74.01;97387.97;5062673;28;20045;-68
2023/09/01 10:55:04;;;;;;;0.13;0.13;;;;;;;16.79;73.61;97375.91;5063047;28;20128;-66
2023/09/01 10:57:38;;;;;;;0.20;0.20;;;;;;;16.84;73.51;97390.28;5062388;28;20106;-66
2023/09/01 11:00:26;;;;;;;0.10;0.10;;;;;;;16.89;73.83;97389.56;5062488;28;20171;-68
2023/09/01 11:02:54;;;;;;;0.10;0.10;;;;;;;16.87;73.64;97384.41;5062707;28;20040;-68
2023/09/01 11:05:36;;;;;;;0.20;0.20;;;;;;;16.95;73.69;97377.81;5063239;28;20064;-68
2023/09/01 11:08:14;;;;;;;0.10;0.10;;;;;;;17.07;73.27;97385.88;5062771;28;20052;-66
2023/09/01 11:10:43;;;;;;;0.22;0.22;;;;;;;17.11;73.34;97382.47;5062254;28;20123;-66
2023/09/01 11:13:15;;;;;;;0.13;0.13;;;;;;;17.21;73.08;97384.53;5063292;28;20058;-69
2023/09/01 11:15:47;;;;;;;0.13;0.13;;;;;;;17.29;73.22;97386.00;5061482;28;20443;-66
2023/09/01 11:18:19;;;;;;;0.13;0.13;;;;;;;17.24;73.28;97397.50;5062145;28;20041;-66
2023/09/01 11:20:48;;;;;;;0.10;0.10;;;;;;;17.22;73.25;97403.16;5061261;28;20049;-68
2023/09/01 11:23:20;;;;;;;0.20;0.20;;;;;;;17.18;73.23;97406.56;5062395;28;20041;-66
2023/09/01 11:25:48;;;;;;;;;;;;;;;17.15;73.58;97397.09;5063818;28;20052;-67
2023/09/01 11:28:15;;;;;;;0.10;0.10;;;;;;;17.10;74.27;97398.88;5061891;28;19920;-66
2023/09/01 11:30:55;;;;;;;0.13;0.13;;;;;;;17.13;73.95;97404.59;5063012;28;20071;-67
2023/09/01 11:33:26;;;;;;;0.10;0.10;;;;;;;17.17;73.63;97399.53;5063059;28;20436;-66
2023/09/01 11:36:04;;;;;;;0.20;0.20;;;;;;;17.15;73.79;97396.25;5061997;28;20098;-67
2023/09/01 11:38:33;;;;;;;0.20;0.20;;;;;;;17.14;73.58;97386.53;5061491;28;20049;-67
2023/09/01 11:41:01;;;;;;;0.13;0.13;;;;;;;17.14;73.90;97391.91;5061681;28;20045;-67
2023/09/01 11:43:29;;;;;;;0.03;0.03;;;;;;;17.27;73.50;97382.72;5061124;28;20056;-67